createdAt,value
2022-11-28T00:02:01.655Z,14.65
2022-11-28T00:04:28.086Z,14.98
2022-11-28T00:06:54.606Z,15.20
2022-11-28T00:09:21.215Z,14.78
2022-11-28T00:11:47.547Z,15.77
2022-11-28T00:14:13.944Z,15.57
2022-11-28T00:16:40.341Z,15.64
2022-11-28T00:19:06.973Z,17.03
2022-11-28T00:21:33.323Z,16.87
2022-11-28T00:23:59.704Z,16.50
2022-11-28T00:26:26.051Z,16.23
2022-11-28T00:28:52.430Z,16.66
2022-11-28T00:31:18.852Z,16.58
2022-11-28T00:33:45.299Z,16.10
2022-11-28T00:36:11.695Z,16.50
2022-11-28T00:38:38.059Z,16.80
2022-11-28T00:41:04.444Z,16.02
2022-11-28T00:43:30.837Z,15.77
2022-11-28T00:45:57.248Z,16.79
2022-11-28T00:48:23.661Z,16.14
2022-11-28T00:50:50.020Z,16.32
2022-11-28T00:53:16.404Z,16.00
2022-11-28T00:55:42.756Z,16.04
2022-11-28T00:58:09.095Z,16.08
2022-11-28T01:00:35.477Z,16.33
2022-11-28T01:03:01.832Z,16.76
2022-11-28T01:05:28.220Z,16.73
2022-11-28T01:07:54.633Z,16.70
2022-11-28T01:10:21.047Z,17.28
2022-11-28T01:12:47.443Z,16.75
2022-11-28T01:15:13.824Z,16.33
2022-11-28T01:17:40.163Z,16.34
2022-11-28T01:20:06.503Z,15.91
2022-11-28T01:22:32.885Z,16.96
2022-11-28T01:24:59.266Z,17.73
2022-11-28T01:27:25.622Z,16.59
2022-11-28T01:29:52.033Z,16.75
2022-11-28T01:32:18.434Z,18.14
2022-11-28T01:34:44.849Z,17.77
2022-11-28T01:37:11.221Z,16.25
2022-11-28T01:39:37.571Z,17.55
2022-11-28T01:42:03.941Z,17.51
2022-11-28T01:44:30.345Z,16.37
2022-11-28T01:46:56.837Z,16.73
2022-11-28T01:49:23.272Z,17.36
2022-11-28T01:51:49.663Z,17.02
2022-11-28T01:54:16.030Z,17.99
2022-11-28T01:56:42.418Z,17.89
2022-11-28T01:59:08.805Z,17.93
2022-11-28T02:01:35.208Z,17.92
2022-11-28T02:04:01.626Z,17.29
2022-11-28T02:06:28.023Z,16.63
2022-11-28T02:08:54.396Z,16.46
2022-11-28T02:11:20.775Z,17.48
2022-11-28T02:13:47.165Z,17.39
2022-11-28T02:16:13.598Z,16.92
2022-11-28T02:18:39.999Z,18.30
2022-11-28T02:21:06.381Z,17.85
2022-11-28T02:23:32.727Z,17.25
2022-11-28T02:25:59.050Z,16.75
2022-11-28T02:28:25.384Z,18.06
2022-11-28T02:30:51.713Z,18.42
2022-11-28T02:33:18.051Z,17.90
2022-11-28T02:35:44.442Z,17.36
2022-11-28T02:38:10.824Z,18.03
2022-11-28T02:40:37.167Z,17.98
2022-11-28T02:43:03.517Z,18.10
2022-11-28T02:45:29.854Z,17.24
2022-11-28T02:47:56.188Z,17.22
2022-11-28T02:50:22.534Z,17.22
2022-11-28T02:52:48.890Z,16.52
2022-11-28T02:55:15.270Z,15.55
2022-11-28T02:57:41.684Z,16.72
2022-11-28T03:00:08.042Z,17.07
2022-11-28T03:02:34.432Z,16.58
2022-11-28T03:05:00.837Z,16.23
2022-11-28T03:07:27.290Z,15.72
2022-11-28T03:09:53.658Z,17.20
2022-11-28T03:12:20.053Z,16.98
2022-11-28T03:14:46.404Z,16.86
2022-11-28T03:17:12.789Z,16.64
2022-11-28T03:19:39.174Z,16.70
2022-11-28T03:22:05.565Z,17.22
2022-11-28T03:24:31.971Z,16.45
2022-11-28T03:26:58.326Z,17.04
2022-11-28T03:29:24.692Z,16.02
2022-11-28T03:31:51.126Z,15.78
2022-11-28T03:34:17.548Z,16.67
2022-11-28T03:36:43.935Z,15.30
2022-11-28T03:39:10.289Z,15.67
2022-11-28T03:41:36.627Z,16.33
2022-11-28T03:44:02.961Z,16.25
2022-11-28T03:46:29.345Z,16.01
2022-11-28T03:48:55.742Z,15.70
2022-11-28T03:51:22.085Z,16.94
2022-11-28T03:53:48.464Z,16.23
2022-11-28T03:56:14.904Z,16.34
2022-11-28T03:58:41.311Z,16.26
2022-11-28T04:01:07.788Z,15.50
2022-11-28T04:03:34.155Z,15.89
2022-11-28T04:06:00.549Z,15.96
2022-11-28T04:08:26.908Z,16.46
2022-11-28T04:10:53.231Z,15.78
2022-11-28T04:13:19.582Z,16.40
2022-11-28T04:15:45.964Z,15.46
2022-11-28T04:18:12.329Z,16.17
2022-11-28T04:20:38.714Z,15.63
2022-11-28T04:23:05.065Z,15.55
2022-11-28T04:25:31.445Z,14.71
2022-11-28T04:27:57.810Z,15.05
2022-11-28T04:30:24.190Z,14.33
2022-11-28T04:32:50.591Z,14.27
2022-11-28T04:35:16.991Z,14.48
2022-11-28T04:37:43.371Z,15.09
2022-11-28T04:40:09.777Z,14.44
2022-11-28T04:42:36.123Z,14.06
2022-11-28T04:45:02.468Z,13.73
2022-11-28T04:47:28.924Z,13.73
2022-11-28T04:49:55.277Z,13.28
2022-11-28T04:52:21.664Z,13.10
2022-11-28T04:54:48.062Z,13.42
2022-11-28T04:57:14.403Z,13.01
2022-11-28T04:59:40.738Z,13.10
2022-11-28T05:02:07.162Z,13.17
2022-11-28T05:04:33.571Z,12.86
2022-11-28T05:06:59.992Z,12.60
2022-11-28T05:09:26.349Z,13.51
2022-11-28T05:11:52.711Z,12.84
2022-11-28T05:14:19.054Z,12.56
2022-11-28T05:16:45.495Z,12.44
2022-11-28T05:19:11.889Z,12.44
2022-11-28T05:21:38.235Z,12.69
2022-11-28T05:24:04.603Z,12.10
2022-11-28T05:26:30.942Z,12.34
2022-11-28T05:28:57.327Z,12.13
2022-11-28T05:31:23.741Z,12.24
2022-11-28T05:33:50.155Z,12.29
2022-11-28T05:36:16.515Z,12.46
2022-11-28T05:38:42.854Z,11.82
2022-11-28T05:41:09.220Z,11.81
2022-11-28T05:43:35.559Z,11.92
2022-11-28T05:46:02.477Z,12.29
2022-11-28T05:48:28.936Z,11.92
2022-11-28T05:50:55.274Z,11.60
2022-11-28T05:53:21.613Z,11.45
2022-11-28T05:55:47.984Z,11.53
2022-11-28T05:58:14.394Z,11.17
2022-11-28T06:00:40.745Z,10.62
2022-11-28T06:03:07.119Z,10.87
2022-11-28T06:05:42.846Z,10.84
2022-11-28T06:08:09.720Z,10.69
2022-11-28T06:10:36.056Z,10.71
2022-11-28T06:13:02.391Z,11.34
2022-11-28T06:15:28.724Z,11.44
2022-11-28T06:17:55.111Z,13.48
2022-11-28T06:20:21.445Z,12.36
2022-11-28T06:22:47.819Z,12.29
2022-11-28T06:25:14.182Z,11.70
2022-11-28T06:27:40.517Z,11.21
2022-11-28T06:30:06.842Z,10.57
2022-11-28T06:32:33.233Z,10.40
2022-11-28T06:34:59.622Z,10.13
2022-11-28T06:37:25.969Z,9.82
2022-11-28T06:39:52.357Z,10.06
2022-11-28T06:42:18.739Z,9.79
2022-11-28T06:44:45.075Z,9.79
2022-11-28T06:47:11.460Z,9.58
2022-11-28T06:49:37.801Z,9.49
2022-11-28T06:52:04.164Z,8.91
2022-11-28T06:54:30.534Z,9.24
2022-11-28T06:56:56.875Z,9.21
2022-11-28T06:59:23.206Z,9.88
2022-11-28T07:01:49.622Z,9.49
2022-11-28T07:04:16.079Z,9.52
2022-11-28T07:06:42.466Z,9.97
2022-11-28T07:09:08.830Z,10.38
2022-11-28T07:11:35.202Z,9.88
2022-11-28T07:14:01.543Z,10.54
2022-11-28T07:16:27.895Z,10.40
2022-11-28T07:18:54.284Z,10.38
2022-11-28T07:21:20.688Z,10.32
2022-11-28T07:23:47.096Z,9.95
2022-11-28T07:26:13.432Z,10.13
2022-11-28T07:28:39.810Z,9.59
2022-11-28T07:31:06.140Z,9.35
2022-11-28T07:33:32.480Z,9.16
2022-11-28T07:35:58.814Z,9.11
2022-11-28T07:38:25.176Z,8.81
2022-11-28T07:40:51.556Z,8.61
2022-11-28T07:43:17.934Z,9.29
2022-11-28T07:45:59.922Z,8.84
2022-11-28T07:48:27.154Z,8.40
2022-11-28T07:50:53.525Z,8.75
2022-11-28T07:53:19.877Z,7.33
2022-11-28T07:55:46.251Z,7.30
2022-11-28T07:58:12.629Z,7.63
2022-11-28T08:00:38.968Z,7.10
2022-11-28T08:03:05.297Z,7.12
2022-11-28T08:05:31.699Z,6.16
2022-11-28T08:07:58.172Z,6.01
2022-11-28T08:10:24.558Z,6.10
2022-11-28T08:12:50.886Z,7.00
2022-11-28T08:15:17.211Z,7.09
2022-11-28T08:17:43.591Z,7.27
2022-11-28T08:20:09.930Z,6.57
2022-11-28T08:22:36.303Z,5.37
2022-11-28T08:25:02.686Z,7.38
2022-11-28T08:27:29.025Z,6.38
2022-11-28T08:29:55.364Z,5.58
2022-11-28T08:32:21.703Z,4.72
2022-11-28T08:34:48.038Z,4.81
2022-11-28T08:37:14.416Z,4.70
2022-11-28T08:39:41.055Z,4.21
2022-11-28T08:42:07.696Z,3.77
2022-11-28T08:44:34.052Z,3.43
2022-11-28T08:47:00.396Z,3.74
2022-11-28T08:49:26.744Z,3.93
2022-11-28T08:51:53.093Z,3.63
2022-11-28T08:54:19.419Z,3.51
2022-11-28T08:56:45.787Z,3.00
2022-11-28T08:59:12.128Z,2.29
2022-11-28T09:01:38.567Z,1.97
2022-11-28T09:04:04.950Z,1.74
2022-11-28T09:06:31.353Z,2.01
2022-11-28T09:08:57.707Z,2.09
2022-11-28T09:11:24.051Z,1.88
2022-11-28T09:13:50.388Z,1.86
2022-11-28T09:16:16.876Z,1.66
2022-11-28T09:18:43.327Z,1.80
2022-11-28T09:21:09.718Z,1.88
2022-11-28T09:23:36.097Z,3.06
2022-11-28T09:26:02.462Z,2.36
2022-11-28T09:28:28.844Z,3.13
2022-11-28T09:30:55.234Z,2.92
2022-11-28T09:33:21.590Z,2.39
2022-11-28T09:35:47.958Z,1.82
2022-11-28T09:38:14.398Z,10.56
2022-11-28T09:40:40.749Z,37.52
2022-11-28T09:43:07.133Z,16.01
2022-11-28T09:45:33.487Z,3.69
2022-11-28T09:47:59.870Z,18.86
2022-11-28T09:50:26.222Z,30.68
2022-11-28T09:52:52.640Z,3.90
2022-11-28T09:55:19.055Z,4.46
2022-11-28T09:57:45.432Z,9.94
2022-11-28T10:00:11.843Z,17.43
2022-11-28T10:02:38.234Z,17.82
2022-11-28T10:05:04.787Z,16.35
2022-11-28T10:07:31.294Z,14.82
2022-11-28T10:09:57.635Z,9.34
2022-11-28T10:12:23.975Z,9.14
2022-11-28T10:14:50.347Z,6.04
2022-11-28T10:17:16.738Z,3.13
2022-11-28T10:19:58.706Z,2.53
2022-11-28T10:22:25.164Z,6.21
2022-11-28T10:24:51.542Z,6.95
2022-11-28T10:27:21.180Z,4.35
2022-11-28T10:29:50.277Z,3.71
2022-11-28T10:32:16.612Z,2.67
2022-11-28T10:34:42.949Z,2.45
2022-11-28T10:37:09.283Z,2.35
2022-11-28T10:39:35.676Z,2.57
2022-11-28T10:42:02.011Z,2.38
2022-11-28T10:44:28.597Z,2.61
2022-11-28T10:46:54.989Z,2.82
2022-11-28T10:49:21.379Z,3.12
2022-11-28T10:51:47.822Z,2.51
2022-11-28T10:54:14.204Z,2.49
2022-11-28T10:56:40.545Z,2.64
2022-11-28T10:59:06.927Z,2.43
2022-11-28T11:01:34.578Z,2.75
2022-11-28T11:04:00.949Z,2.80
2022-11-28T11:06:36.128Z,2.75
2022-11-28T11:09:07.629Z,2.89
2022-11-28T11:11:33.973Z,3.08
2022-11-28T11:14:00.307Z,3.01
2022-11-28T11:16:26.667Z,3.31
2022-11-28T11:18:53.112Z,2.97
2022-11-28T11:21:19.460Z,2.82
2022-11-28T11:23:45.847Z,2.79
2022-11-28T11:26:12.228Z,2.69
2022-11-28T11:28:38.608Z,2.86
2022-11-28T11:31:05.011Z,2.99
2022-11-28T11:33:31.399Z,2.95
2022-11-28T11:35:57.775Z,3.09
2022-11-28T11:38:24.171Z,3.02
2022-11-28T11:40:50.527Z,3.30
2022-11-28T11:43:16.902Z,3.18
2022-11-28T11:45:45.131Z,3.07
2022-11-28T11:48:13.622Z,3.04
2022-11-28T11:50:39.983Z,3.34
2022-11-28T11:53:06.322Z,3.19
2022-11-28T11:55:32.695Z,3.26
2022-11-28T11:58:04.112Z,3.23
2022-11-28T12:00:31.917Z,3.59
2022-11-28T12:02:58.432Z,3.35
2022-11-28T12:05:24.920Z,3.24
2022-11-28T12:07:51.381Z,3.32
2022-11-28T12:10:17.754Z,3.60
2022-11-28T12:12:44.126Z,3.86
2022-11-28T12:15:10.474Z,3.82
2022-11-28T12:17:57.216Z,3.85
2022-11-28T12:20:23.124Z,3.76
2022-11-28T12:22:49.469Z,3.99
2022-11-28T12:25:15.843Z,4.14
2022-11-28T12:27:42.267Z,3.93
2022-11-28T12:30:08.619Z,3.84
2022-11-28T12:32:34.949Z,3.81
2022-11-28T12:35:01.279Z,3.76
2022-11-28T12:37:42.026Z,4.28
2022-11-28T12:40:08.854Z,3.65
2022-11-28T12:42:35.215Z,3.54
2022-11-28T12:45:01.558Z,3.41
2022-11-28T12:47:27.931Z,3.25
2022-11-28T12:49:54.317Z,3.35
2022-11-28T12:52:20.771Z,3.35
2022-11-28T12:54:47.104Z,3.15
2022-11-28T12:57:13.480Z,3.17
2022-11-28T12:59:39.822Z,2.90
2022-11-28T13:02:09.764Z,2.80
2022-11-28T13:04:36.418Z,2.79
2022-11-28T13:07:02.765Z,2.88
2022-11-28T13:09:29.140Z,2.72
2022-11-28T13:11:55.535Z,2.56
2022-11-28T13:14:21.926Z,2.56
2022-11-28T13:16:48.330Z,2.85
2022-11-28T13:19:14.710Z,2.78
2022-11-28T13:21:41.083Z,2.68
2022-11-28T13:24:07.687Z,2.70
2022-11-28T13:26:34.117Z,2.47
2022-11-28T13:29:00.533Z,2.78
2022-11-28T13:31:26.908Z,2.48
2022-11-28T13:33:53.308Z,2.28
2022-11-28T13:39:12.710Z,2.36
2022-11-28T13:44:29.037Z,2.32
2022-11-28T13:46:56.744Z,2.35
2022-11-28T13:49:23.321Z,2.32
2022-11-28T13:51:49.756Z,2.46
2022-11-28T13:54:16.122Z,2.40
2022-11-28T13:56:42.442Z,2.26
2022-11-28T13:59:08.835Z,2.35
2022-11-28T14:01:35.276Z,2.42
2022-11-28T14:04:01.617Z,2.18
2022-11-28T14:06:27.997Z,2.49
2022-11-28T14:08:54.337Z,2.42
2022-11-28T14:11:27.261Z,2.43
2022-11-28T14:13:54.171Z,2.50
2022-11-28T14:16:20.647Z,2.65
2022-11-28T14:19:02.266Z,2.88
2022-11-28T14:21:28.656Z,2.65
2022-11-28T14:23:54.998Z,2.52
2022-11-28T14:26:21.339Z,2.43
2022-11-28T14:28:47.729Z,2.70
2022-11-28T14:31:14.150Z,2.78
2022-11-28T14:33:40.576Z,2.72
2022-11-28T14:36:06.969Z,2.79
2022-11-28T14:38:33.304Z,2.74
2022-11-28T14:40:59.646Z,2.87
2022-11-28T14:43:26.095Z,3.00
2022-11-28T14:45:52.419Z,2.70
2022-11-28T14:48:18.852Z,2.84
2022-11-28T14:50:45.246Z,2.89
2022-11-28T14:53:11.615Z,2.93
2022-11-28T14:55:37.957Z,2.99
2022-11-28T14:58:04.313Z,2.90
2022-11-28T15:00:30.693Z,2.90
2022-11-28T15:02:57.182Z,3.10
2022-11-28T15:05:23.687Z,3.14
2022-11-28T15:07:50.147Z,3.07
2022-11-28T15:10:16.563Z,3.23
2022-11-28T15:12:42.929Z,3.43
2022-11-28T15:15:09.320Z,3.06
2022-11-28T15:17:35.658Z,3.31
2022-11-28T15:20:02.002Z,3.11
2022-11-28T15:22:28.334Z,3.21
2022-11-28T15:24:54.704Z,3.09
2022-11-28T15:27:21.046Z,3.45
2022-11-28T15:29:47.426Z,3.44
2022-11-28T15:32:13.760Z,3.73
2022-11-28T15:34:40.136Z,3.87
2022-11-28T15:37:06.544Z,3.49
2022-11-28T15:39:32.927Z,3.68
2022-11-28T15:41:59.250Z,3.73
2022-11-28T15:44:25.688Z,3.84
2022-11-28T15:46:52.057Z,3.96
2022-11-28T15:49:18.462Z,3.68
2022-11-28T15:51:44.829Z,4.08
2022-11-28T15:54:14.919Z,4.04
2022-11-28T15:56:41.445Z,3.85
2022-11-28T15:59:07.787Z,3.91
2022-11-28T16:01:34.164Z,4.10
2022-11-28T16:04:00.515Z,4.30
2022-11-28T16:06:26.898Z,4.19
2022-11-28T16:08:53.273Z,4.11
2022-11-28T16:11:19.619Z,4.54
2022-11-28T16:13:45.965Z,4.21
2022-11-28T16:16:12.402Z,4.30
2022-11-28T16:18:38.802Z,4.24
2022-11-28T16:21:05.180Z,4.60
2022-11-28T16:23:31.512Z,4.63
2022-11-28T16:25:57.905Z,4.52
2022-11-28T16:28:24.260Z,4.64
2022-11-28T16:30:50.621Z,4.52
2022-11-28T16:33:21.679Z,4.62
2022-11-28T16:35:48.255Z,4.57
2022-11-28T16:38:14.645Z,4.67
2022-11-28T16:40:41.078Z,4.66
2022-11-28T16:43:07.422Z,4.46
2022-11-28T16:45:33.859Z,4.45
2022-11-28T16:48:00.317Z,4.53
2022-11-28T16:50:26.937Z,4.53
2022-11-28T16:52:53.315Z,4.44
2022-11-28T16:55:19.701Z,4.54
2022-11-28T16:57:46.081Z,4.39
2022-11-28T17:00:12.503Z,4.34
2022-11-28T17:02:38.885Z,4.49
2022-11-28T17:05:05.224Z,3.91
2022-11-28T17:07:31.621Z,4.30
2022-11-28T17:09:58.044Z,4.37
2022-11-28T17:12:24.403Z,4.57
2022-11-28T17:14:50.736Z,4.44
2022-11-28T17:17:17.065Z,4.43
2022-11-28T17:19:43.886Z,4.47
2022-11-28T17:22:10.441Z,4.58
2022-11-28T17:24:36.784Z,4.82
2022-11-28T17:27:03.118Z,4.00
2022-11-28T17:29:29.513Z,4.43
2022-11-28T17:31:55.940Z,4.36
2022-11-28T17:34:22.346Z,4.15
2022-11-28T17:36:48.702Z,4.53
2022-11-28T17:39:15.042Z,4.32
2022-11-28T17:41:41.369Z,4.13
2022-11-28T17:44:07.698Z,4.60
2022-11-28T17:46:34.018Z,4.29
2022-11-28T17:49:00.343Z,4.30
2022-11-28T17:51:26.714Z,4.23
2022-11-28T17:53:53.047Z,4.36
2022-11-28T17:56:19.374Z,4.71
2022-11-28T17:58:45.751Z,4.80
2022-11-28T18:01:12.267Z,4.71
2022-11-28T18:03:38.795Z,4.91
2022-11-28T18:06:05.224Z,5.27
2022-11-28T18:08:31.714Z,5.25
2022-11-28T18:10:58.136Z,5.18
2022-11-28T18:13:24.597Z,5.16
2022-11-28T18:15:50.948Z,5.08
2022-11-28T18:18:17.312Z,5.03
2022-11-28T18:20:43.680Z,4.65
2022-11-28T18:23:10.051Z,4.63
2022-11-28T18:25:36.437Z,4.70
2022-11-28T18:28:02.826Z,4.54
2022-11-28T18:30:29.174Z,4.27
2022-11-28T18:32:55.543Z,4.27
2022-11-28T18:35:21.899Z,3.96
2022-11-28T18:37:48.226Z,4.09
2022-11-28T18:40:14.614Z,4.08
2022-11-28T18:42:40.996Z,3.69
2022-11-28T18:45:07.404Z,3.85
2022-11-28T18:47:33.748Z,3.98
2022-11-28T18:50:00.085Z,3.65
2022-11-28T18:52:26.421Z,3.54
2022-11-28T18:54:52.760Z,3.79
2022-11-28T18:57:19.101Z,3.82
2022-11-28T18:59:52.897Z,3.93
2022-11-28T19:02:21.326Z,3.78
2022-11-28T19:04:47.731Z,3.72
2022-11-28T19:07:14.120Z,4.02
2022-11-28T19:09:40.619Z,3.85
2022-11-28T19:12:07.032Z,3.84
2022-11-28T19:14:33.378Z,3.70
2022-11-28T19:16:59.737Z,3.87
2022-11-28T19:19:26.141Z,3.82
2022-11-28T19:21:52.511Z,3.76
2022-11-28T19:24:18.843Z,3.64
2022-11-28T19:26:45.214Z,3.60
2022-11-28T19:29:11.572Z,3.62
2022-11-28T19:31:38.013Z,3.66
2022-11-28T19:34:04.417Z,3.34
2022-11-28T19:36:30.794Z,3.70
2022-11-28T19:38:57.204Z,3.51
2022-11-28T19:41:23.559Z,3.52
2022-11-28T19:43:49.937Z,3.76
2022-11-28T19:46:16.368Z,3.64
2022-11-28T19:48:42.783Z,3.68
2022-11-28T19:51:09.178Z,3.71
2022-11-28T19:53:35.594Z,4.10
2022-11-28T19:56:01.981Z,3.73
2022-11-28T19:58:28.340Z,3.94
2022-11-28T20:00:54.791Z,3.76
2022-11-28T20:03:21.200Z,3.89
2022-11-28T20:05:47.565Z,3.64
2022-11-28T20:08:13.937Z,3.51
2022-11-28T20:10:40.331Z,3.52
2022-11-28T20:13:06.706Z,3.40
2022-11-28T20:15:33.033Z,3.26
2022-11-28T20:17:59.367Z,3.30
2022-11-28T20:20:25.767Z,3.30
2022-11-28T20:22:52.153Z,3.31
2022-11-28T20:25:21.006Z,3.25
2022-11-28T20:27:47.610Z,3.02
2022-11-28T20:30:14.004Z,3.08
2022-11-28T20:32:40.391Z,3.06
2022-11-28T20:35:06.770Z,2.80
2022-11-28T20:37:33.132Z,3.04
2022-11-28T20:39:59.457Z,3.19
2022-11-28T20:42:25.777Z,3.06
2022-11-28T20:44:52.157Z,3.19
2022-11-28T20:47:18.499Z,3.60
2022-11-28T20:49:45.009Z,3.20
2022-11-28T20:52:11.510Z,2.98
2022-11-28T20:54:37.871Z,3.22
2022-11-28T20:57:21.697Z,3.56
2022-11-28T20:59:48.522Z,3.41
2022-11-28T21:02:14.893Z,3.22
2022-11-28T21:04:41.238Z,3.67
2022-11-28T21:07:07.562Z,3.48
2022-11-28T21:09:33.879Z,3.67
2022-11-28T21:12:00.246Z,3.55
2022-11-28T21:14:26.605Z,3.62
2022-11-28T21:16:53.019Z,3.34
2022-11-28T21:19:19.395Z,3.55
2022-11-28T21:21:45.718Z,3.77
2022-11-28T21:24:12.051Z,3.39
2022-11-28T21:26:42.174Z,3.71
2022-11-28T21:29:10.466Z,3.98
2022-11-28T21:31:36.886Z,3.98
2022-11-28T21:34:03.223Z,3.83
2022-11-28T21:36:29.560Z,3.67
2022-11-28T21:38:55.904Z,3.99
2022-11-28T21:41:22.239Z,3.77
2022-11-28T21:43:48.604Z,3.67
2022-11-28T21:46:15.022Z,3.63
2022-11-28T21:48:41.390Z,3.57
2022-11-28T21:51:07.768Z,3.69
2022-11-28T21:53:34.115Z,3.52
2022-11-28T21:56:00.440Z,3.50
2022-11-28T21:58:27.004Z,3.48
2022-11-28T22:00:54.038Z,3.83
2022-11-28T22:03:20.568Z,3.47
2022-11-28T22:05:46.966Z,3.48
2022-11-28T22:08:13.343Z,3.59
2022-11-28T22:10:39.684Z,3.52
2022-11-28T22:13:06.026Z,3.70
2022-11-28T22:15:32.394Z,3.61
2022-11-28T22:17:58.768Z,3.61
2022-11-28T22:20:25.118Z,3.55
2022-11-28T22:22:51.462Z,3.68
2022-11-28T22:25:17.815Z,3.34
2022-11-28T22:27:44.187Z,3.49
2022-11-28T22:30:10.528Z,3.09
2022-11-28T22:32:36.855Z,3.38
2022-11-28T22:35:03.196Z,3.71
2022-11-28T22:37:29.539Z,3.55
2022-11-28T22:39:55.913Z,3.72
2022-11-28T22:42:22.273Z,3.63
2022-11-28T22:44:48.674Z,3.33
2022-11-28T22:47:15.022Z,3.43
2022-11-28T22:49:41.417Z,3.71
2022-11-28T22:52:07.793Z,3.36
2022-11-28T22:54:34.130Z,3.38
2022-11-28T22:57:00.530Z,3.71
2022-11-28T22:59:26.859Z,3.59
2022-11-28T23:01:53.358Z,3.42
2022-11-28T23:04:19.794Z,3.49
2022-11-28T23:06:46.135Z,3.74
2022-11-28T23:09:12.500Z,3.51
2022-11-28T23:11:38.883Z,3.46
2022-11-28T23:14:05.265Z,3.38
2022-11-28T23:16:31.675Z,3.39
2022-11-28T23:18:58.118Z,3.41
2022-11-28T23:21:24.508Z,3.33
2022-11-28T23:23:50.850Z,3.66
2022-11-28T23:26:17.219Z,3.38
2022-11-28T23:28:43.561Z,3.12
2022-11-28T23:31:09.943Z,2.99
2022-11-28T23:33:36.315Z,3.02
2022-11-28T23:36:02.713Z,3.00
2022-11-28T23:38:29.067Z,2.94
2022-11-28T23:40:55.453Z,2.75
2022-11-28T23:43:21.829Z,2.72
2022-11-28T23:45:48.255Z,2.70
2022-11-28T23:48:16.347Z,2.59
2022-11-28T23:50:42.866Z,2.59
2022-11-28T23:53:09.703Z,2.46
2022-11-28T23:55:36.045Z,2.61
2022-11-28T23:58:02.506Z,2.71
